sensor_id;sensor_type;location;lat;lon;timestamp;P1;durP1;ratioP1;P2;durP2;ratioP2
13481;SDS011;6813;60.352;15.746;2023-02-24T00:00:06;1.60;;;1.50;;
13481;SDS011;6813;60.352;15.746;2023-02-24T00:02:53;2.30;;;1.40;;
13481;SDS011;6813;60.352;15.746;2023-02-24T00:05:19;3.07;;;1.90;;
13481;SDS011;6813;60.352;15.746;2023-02-24T00:07:47;2.53;;;1.70;;
13481;SDS011;6813;60.352;15.746;2023-02-24T00:10:13;2.40;;;1.80;;
13481;SDS011;6813;60.352;15.746;2023-02-24T00:12:43;3.27;;;1.63;;
13481;SDS011;6813;60.352;15.746;2023-02-24T00:15:11;2.40;;;1.43;;
13481;SDS011;6813;60.352;15.746;2023-02-24T00:17:40;3.13;;;1.70;;
13481;SDS011;6813;60.352;15.746;2023-02-24T00:20:09;2.00;;;1.70;;
13481;SDS011;6813;60.352;15.746;2023-02-24T00:22:40;1.77;;;1.57;;
13481;SDS011;6813;60.352;15.746;2023-02-24T00:25:06;2.13;;;1.50;;
13481;SDS011;6813;60.352;15.746;2023-02-24T00:27:33;2.40;;;1.30;;
13481;SDS011;6813;60.352;15.746;2023-02-24T00:29:59;1.60;;;1.30;;
13481;SDS011;6813;60.352;15.746;2023-02-24T00:32:26;6.03;;;1.70;;
13481;SDS011;6813;60.352;15.746;2023-02-24T00:34:51;3.37;;;2.10;;
13481;SDS011;6813;60.352;15.746;2023-02-24T00:37:17;5.43;;;2.80;;
13481;SDS011;6813;60.352;15.746;2023-02-24T00:39:48;4.33;;;2.50;;
13481;SDS011;6813;60.352;15.746;2023-02-24T00:42:14;3.30;;;2.40;;
13481;SDS011;6813;60.352;15.746;2023-02-24T00:44:44;3.50;;;2.27;;
13481;SDS011;6813;60.352;15.746;2023-02-24T00:47:11;2.73;;;1.73;;
13481;SDS011;6813;60.352;15.746;2023-02-24T00:49:40;2.23;;;1.50;;
13481;SDS011;6813;60.352;15.746;2023-02-24T00:52:13;2.03;;;1.40;;
13481;SDS011;6813;60.352;15.746;2023-02-24T00:54:45;5.33;;;1.60;;
13481;SDS011;6813;60.352;15.746;2023-02-24T00:57:12;4.07;;;1.80;;
13481;SDS011;6813;60.352;15.746;2023-02-24T00:59:38;2.50;;;1.60;;
13481;SDS011;6813;60.352;15.746;2023-02-24T01:02:04;2.93;;;1.20;;
13481;SDS011;6813;60.352;15.746;2023-02-24T01:04:31;3.37;;;1.67;;
13481;SDS011;6813;60.352;15.746;2023-02-24T01:06:57;2.80;;;1.77;;
13481;SDS011;6813;60.352;15.746;2023-02-24T01:09:27;2.73;;;1.90;;
13481;SDS011;6813;60.352;15.746;2023-02-24T01:11:55;1.80;;;1.70;;
13481;SDS011;6813;60.352;15.746;2023-02-24T01:14:39;3.93;;;1.73;;
13481;SDS011;6813;60.352;15.746;2023-02-24T01:17:07;2.40;;;1.50;;
13481;SDS011;6813;60.352;15.746;2023-02-24T01:19:33;1.90;;;1.50;;
13481;SDS011;6813;60.352;15.746;2023-02-24T01:22:00;1.87;;;1.50;;
13481;SDS011;6813;60.352;15.746;2023-02-24T01:24:29;3.07;;;1.37;;
13481;SDS011;6813;60.352;15.746;2023-02-24T01:27:00;3.93;;;2.10;;
13481;SDS011;6813;60.352;15.746;2023-02-24T01:29:26;5.73;;;3.93;;
13481;SDS011;6813;60.352;15.746;2023-02-24T01:31:52;4.17;;;2.80;;
13481;SDS011;6813;60.352;15.746;2023-02-24T01:34:21;2.33;;;1.90;;
13481;SDS011;6813;60.352;15.746;2023-02-24T01:36:51;1.60;;;1.47;;
13481;SDS011;6813;60.352;15.746;2023-02-24T01:39:17;2.67;;;1.70;;
13481;SDS011;6813;60.352;15.746;2023-02-24T01:41:43;1.77;;;1.33;;
13481;SDS011;6813;60.352;15.746;2023-02-24T01:46:41;2.50;;;1.53;;
13481;SDS011;6813;60.352;15.746;2023-02-24T01:49:26;1.80;;;1.50;;
13481;SDS011;6813;60.352;15.746;2023-02-24T01:52:08;4.90;;;1.70;;
13481;SDS011;6813;60.352;15.746;2023-02-24T01:54:37;3.80;;;1.50;;
13481;SDS011;6813;60.352;15.746;2023-02-24T01:57:12;2.13;;;1.40;;
13481;SDS011;6813;60.352;15.746;2023-02-24T01:59:41;2.13;;;1.37;;
13481;SDS011;6813;60.352;15.746;2023-02-24T02:02:10;2.03;;;1.33;;
13481;SDS011;6813;60.352;15.746;2023-02-24T02:04:38;2.00;;;1.40;;
13481;SDS011;6813;60.352;15.746;2023-02-24T02:07:09;2.90;;;1.40;;
13481;SDS011;6813;60.352;15.746;2023-02-24T02:09:37;1.97;;;1.50;;
13481;SDS011;6813;60.352;15.746;2023-02-24T02:12:07;3.90;;;1.47;;
13481;SDS011;6813;60.352;15.746;2023-02-24T02:14:34;1.93;;;1.50;;
13481;SDS011;6813;60.352;15.746;2023-02-24T02:17:25;2.33;;;1.30;;
13481;SDS011;6813;60.352;15.746;2023-02-24T02:34:39;1.80;;;1.30;;
13481;SDS011;6813;60.352;15.746;2023-02-24T02:45:20;2.37;;;1.50;;
13481;SDS011;6813;60.352;15.746;2023-02-24T02:47:49;1.67;;;1.30;;
13481;SDS011;6813;60.352;15.746;2023-02-24T02:52:48;2.07;;;1.27;;
13481;SDS011;6813;60.352;15.746;2023-02-24T02:55:44;1.33;;;1.23;;
13481;SDS011;6813;60.352;15.746;2023-02-24T02:58:18;3.57;;;1.80;;
13481;SDS011;6813;60.352;15.746;2023-02-24T03:00:51;1.50;;;1.30;;
13481;SDS011;6813;60.352;15.746;2023-02-24T03:03:26;1.07;;;0.87;;
13481;SDS011;6813;60.352;15.746;2023-02-24T03:05:57;2.23;;;1.37;;
13481;SDS011;6813;60.352;15.746;2023-02-24T03:08:38;1.30;;;1.13;;
13481;SDS011;6813;60.352;15.746;2023-02-24T03:11:09;2.60;;;1.57;;
13481;SDS011;6813;60.352;15.746;2023-02-24T03:13:40;1.90;;;1.70;;
13481;SDS011;6813;60.352;15.746;2023-02-24T03:16:09;2.70;;;1.73;;
13481;SDS011;6813;60.352;15.746;2023-02-24T03:18:38;4.77;;;2.77;;
13481;SDS011;6813;60.352;15.746;2023-02-24T03:21:13;4.43;;;2.20;;
13481;SDS011;6813;60.352;15.746;2023-02-24T03:23:53;3.57;;;2.43;;
13481;SDS011;6813;60.352;15.746;2023-02-24T03:26:32;2.67;;;2.13;;
13481;SDS011;6813;60.352;15.746;2023-02-24T03:31:44;3.10;;;1.33;;
13481;SDS011;6813;60.352;15.746;2023-02-24T03:35:08;2.03;;;1.43;;
13481;SDS011;6813;60.352;15.746;2023-02-24T03:37:24;2.13;;;1.23;;
13481;SDS011;6813;60.352;15.746;2023-02-24T03:39:59;1.93;;;1.40;;
13481;SDS011;6813;60.352;15.746;2023-02-24T03:42:49;1.30;;;1.03;;
13481;SDS011;6813;60.352;15.746;2023-02-24T03:45:21;2.93;;;1.77;;
13481;SDS011;6813;60.352;15.746;2023-02-24T03:47:48;1.20;;;1.00;;
13481;SDS011;6813;60.352;15.746;2023-02-24T03:50:18;3.23;;;1.30;;
13481;SDS011;6813;60.352;15.746;2023-02-24T04:01:12;6.50;;;2.67;;
13481;SDS011;6813;60.352;15.746;2023-02-24T04:04:00;5.13;;;3.00;;
13481;SDS011;6813;60.352;15.746;2023-02-24T04:14:42;5.20;;;2.87;;
13481;SDS011;6813;60.352;15.746;2023-02-24T04:19:47;4.43;;;2.50;;
13481;SDS011;6813;60.352;15.746;2023-02-24T04:22:16;4.10;;;3.03;;
13481;SDS011;6813;60.352;15.746;2023-02-24T04:24:49;5.57;;;3.97;;
13481;SDS011;6813;60.352;15.746;2023-02-24T04:27:17;6.07;;;4.03;;
13481;SDS011;6813;60.352;15.746;2023-02-24T04:29:52;7.80;;;5.83;;
13481;SDS011;6813;60.352;15.746;2023-02-24T04:32:22;4.40;;;3.00;;
13481;SDS011;6813;60.352;15.746;2023-02-24T04:34:51;6.87;;;3.17;;
13481;SDS011;6813;60.352;15.746;2023-02-24T04:37:17;6.23;;;2.97;;
13481;SDS011;6813;60.352;15.746;2023-02-24T04:39:47;4.67;;;2.50;;
13481;SDS011;6813;60.352;15.746;2023-02-24T04:42:15;5.83;;;2.93;;
13481;SDS011;6813;60.352;15.746;2023-02-24T04:44:44;3.63;;;2.43;;
13481;SDS011;6813;60.352;15.746;2023-02-24T04:47:10;4.10;;;2.40;;
13481;SDS011;6813;60.352;15.746;2023-02-24T04:49:36;5.27;;;2.97;;
13481;SDS011;6813;60.352;15.746;2023-02-24T04:52:05;4.17;;;3.30;;
13481;SDS011;6813;60.352;15.746;2023-02-24T04:54:33;5.83;;;3.07;;
13481;SDS011;6813;60.352;15.746;2023-02-24T04:56:59;4.80;;;2.90;;
13481;SDS011;6813;60.352;15.746;2023-02-24T04:59:25;3.80;;;2.70;;
13481;SDS011;6813;60.352;15.746;2023-02-24T05:01:51;3.90;;;2.50;;
13481;SDS011;6813;60.352;15.746;2023-02-24T05:04:17;5.63;;;2.97;;
13481;SDS011;6813;60.352;15.746;2023-02-24T05:06:43;3.63;;;2.70;;
13481;SDS011;6813;60.352;15.746;2023-02-24T05:09:10;5.33;;;2.80;;
13481;SDS011;6813;60.352;15.746;2023-02-24T05:11:44;5.73;;;3.60;;
13481;SDS011;6813;60.352;15.746;2023-02-24T05:14:15;7.03;;;3.70;;
13481;SDS011;6813;60.352;15.746;2023-02-24T05:16:45;6.80;;;3.77;;
13481;SDS011;6813;60.352;15.746;2023-02-24T05:19:14;4.93;;;3.23;;
13481;SDS011;6813;60.352;15.746;2023-02-24T05:22:00;5.70;;;4.00;;
13481;SDS011;6813;60.352;15.746;2023-02-24T05:24:27;5.10;;;3.40;;
13481;SDS011;6813;60.352;15.746;2023-02-24T05:26:55;6.67;;;4.13;;
13481;SDS011;6813;60.352;15.746;2023-02-24T05:29:28;6.23;;;4.17;;
13481;SDS011;6813;60.352;15.746;2023-02-24T05:31:59;6.90;;;3.93;;
13481;SDS011;6813;60.352;15.746;2023-02-24T05:34:28;8.67;;;3.93;;
13481;SDS011;6813;60.352;15.746;2023-02-24T05:36:56;8.17;;;4.30;;
13481;SDS011;6813;60.352;15.746;2023-02-24T05:39:23;6.93;;;4.57;;
13481;SDS011;6813;60.352;15.746;2023-02-24T05:41:51;6.40;;;4.23;;
13481;SDS011;6813;60.352;15.746;2023-02-24T05:44:19;7.10;;;4.07;;
13481;SDS011;6813;60.352;15.746;2023-02-24T05:46:46;8.80;;;4.47;;
13481;SDS011;6813;60.352;15.746;2023-02-24T05:49:17;7.20;;;4.57;;
13481;SDS011;6813;60.352;15.746;2023-02-24T05:51:51;7.47;;;4.13;;
13481;SDS011;6813;60.352;15.746;2023-02-24T05:54:18;7.40;;;4.07;;
13481;SDS011;6813;60.352;15.746;2023-02-24T05:56:46;7.87;;;4.40;;
13481;SDS011;6813;60.352;15.746;2023-02-24T05:59:13;9.93;;;4.83;;
13481;SDS011;6813;60.352;15.746;2023-02-24T06:01:42;10.87;;;5.00;;
13481;SDS011;6813;60.352;15.746;2023-02-24T06:04:11;7.17;;;4.77;;
13481;SDS011;6813;60.352;15.746;2023-02-24T06:06:45;8.63;;;4.77;;
13481;SDS011;6813;60.352;15.746;2023-02-24T06:09:16;8.03;;;4.67;;
13481;SDS011;6813;60.352;15.746;2023-02-24T06:11:43;6.33;;;4.30;;
13481;SDS011;6813;60.352;15.746;2023-02-24T06:14:10;8.83;;;4.50;;
13481;SDS011;6813;60.352;15.746;2023-02-24T06:16:37;8.90;;;4.40;;
13481;SDS011;6813;60.352;15.746;2023-02-24T06:19:05;12.07;;;6.57;;
13481;SDS011;6813;60.352;15.746;2023-02-24T06:21:37;5.93;;;4.23;;
13481;SDS011;6813;60.352;15.746;2023-02-24T06:24:06;8.23;;;4.43;;
13481;SDS011;6813;60.352;15.746;2023-02-24T06:26:38;7.90;;;4.50;;
13481;SDS011;6813;60.352;15.746;2023-02-24T06:29:11;9.20;;;5.17;;
13481;SDS011;6813;60.352;15.746;2023-02-24T06:31:38;8.13;;;5.10;;
13481;SDS011;6813;60.352;15.746;2023-02-24T06:34:05;8.77;;;5.23;;
13481;SDS011;6813;60.352;15.746;2023-02-24T06:36:32;8.30;;;5.43;;
13481;SDS011;6813;60.352;15.746;2023-02-24T06:38:57;8.33;;;5.10;;
13481;SDS011;6813;60.352;15.746;2023-02-24T06:41:23;8.10;;;5.20;;
13481;SDS011;6813;60.352;15.746;2023-02-24T06:43:53;8.87;;;5.77;;
13481;SDS011;6813;60.352;15.746;2023-02-24T06:46:19;9.83;;;6.57;;
13481;SDS011;6813;60.352;15.746;2023-02-24T06:48:44;11.47;;;6.53;;
13481;SDS011;6813;60.352;15.746;2023-02-24T06:51:13;10.30;;;6.50;;
13481;SDS011;6813;60.352;15.746;2023-02-24T06:53:40;7.37;;;4.30;;
13481;SDS011;6813;60.352;15.746;2023-02-24T06:56:13;8.90;;;4.50;;
13481;SDS011;6813;60.352;15.746;2023-02-24T06:58:42;7.07;;;4.30;;
13481;SDS011;6813;60.352;15.746;2023-02-24T07:01:16;6.13;;;4.20;;
13481;SDS011;6813;60.352;15.746;2023-02-24T07:03:49;7.13;;;4.17;;
13481;SDS011;6813;60.352;15.746;2023-02-24T07:06:32;7.40;;;4.20;;
13481;SDS011;6813;60.352;15.746;2023-02-24T07:09:03;6.63;;;4.27;;
13481;SDS011;6813;60.352;15.746;2023-02-24T07:11:31;8.80;;;4.30;;
13481;SDS011;6813;60.352;15.746;2023-02-24T07:13:58;6.67;;;4.07;;
13481;SDS011;6813;60.352;15.746;2023-02-24T07:16:25;8.00;;;4.50;;
13481;SDS011;6813;60.352;15.746;2023-02-24T07:18:55;7.43;;;4.37;;
13481;SDS011;6813;60.352;15.746;2023-02-24T07:21:27;6.70;;;4.40;;
13481;SDS011;6813;60.352;15.746;2023-02-24T07:23:55;9.73;;;4.30;;
13481;SDS011;6813;60.352;15.746;2023-02-24T07:26:22;6.47;;;4.47;;
13481;SDS011;6813;60.352;15.746;2023-02-24T07:28:49;8.37;;;4.00;;
13481;SDS011;6813;60.352;15.746;2023-02-24T07:31:19;7.27;;;4.20;;
13481;SDS011;6813;60.352;15.746;2023-02-24T07:33:48;7.23;;;4.33;;
13481;SDS011;6813;60.352;15.746;2023-02-24T07:36:17;9.33;;;5.10;;
13481;SDS011;6813;60.352;15.746;2023-02-24T07:38:47;9.30;;;6.13;;
13481;SDS011;6813;60.352;15.746;2023-02-24T07:41:16;7.93;;;4.90;;
13481;SDS011;6813;60.352;15.746;2023-02-24T07:43:46;8.67;;;5.90;;
13481;SDS011;6813;60.352;15.746;2023-02-24T07:46:18;7.47;;;5.10;;
13481;SDS011;6813;60.352;15.746;2023-02-24T07:48:47;7.70;;;5.07;;
13481;SDS011;6813;60.352;15.746;2023-02-24T07:51:15;9.10;;;4.77;;
13481;SDS011;6813;60.352;15.746;2023-02-24T07:53:43;8.37;;;5.53;;
13481;SDS011;6813;60.352;15.746;2023-02-24T07:56:12;9.33;;;4.60;;
13481;SDS011;6813;60.352;15.746;2023-02-24T07:58:42;7.40;;;4.57;;
13481;SDS011;6813;60.352;15.746;2023-02-24T08:01:12;7.23;;;4.00;;
13481;SDS011;6813;60.352;15.746;2023-02-24T08:03:50;7.77;;;3.87;;
13481;SDS011;6813;60.352;15.746;2023-02-24T08:06:20;6.57;;;3.93;;
13481;SDS011;6813;60.352;15.746;2023-02-24T08:08:57;6.83;;;3.87;;
13481;SDS011;6813;60.352;15.746;2023-02-24T08:11:24;6.83;;;4.40;;
13481;SDS011;6813;60.352;15.746;2023-02-24T08:13:51;6.43;;;3.67;;
13481;SDS011;6813;60.352;15.746;2023-02-24T08:16:17;7.17;;;3.57;;
13481;SDS011;6813;60.352;15.746;2023-02-24T08:18:43;6.07;;;3.53;;
13481;SDS011;6813;60.352;15.746;2023-02-24T08:21:16;6.23;;;3.20;;
13481;SDS011;6813;60.352;15.746;2023-02-24T08:23:45;5.47;;;3.37;;
13481;SDS011;6813;60.352;15.746;2023-02-24T08:26:11;6.57;;;4.10;;
13481;SDS011;6813;60.352;15.746;2023-02-24T08:28:40;4.67;;;3.27;;
13481;SDS011;6813;60.352;15.746;2023-02-24T08:31:06;4.63;;;2.90;;
13481;SDS011;6813;60.352;15.746;2023-02-24T08:33:31;5.70;;;3.20;;
13481;SDS011;6813;60.352;15.746;2023-02-24T08:36:01;5.77;;;3.30;;
13481;SDS011;6813;60.352;15.746;2023-02-24T08:38:28;4.83;;;3.40;;
13481;SDS011;6813;60.352;15.746;2023-02-24T08:41:04;4.43;;;3.00;;
13481;SDS011;6813;60.352;15.746;2023-02-24T08:43:38;5.00;;;3.20;;
13481;SDS011;6813;60.352;15.746;2023-02-24T08:53:59;4.87;;;3.00;;
13481;SDS011;6813;60.352;15.746;2023-02-24T08:56:35;5.13;;;3.77;;
13481;SDS011;6813;60.352;15.746;2023-02-24T08:59:07;5.80;;;3.03;;
13481;SDS011;6813;60.352;15.746;2023-02-24T09:01:40;6.57;;;3.27;;
13481;SDS011;6813;60.352;15.746;2023-02-24T09:04:18;6.53;;;3.37;;
13481;SDS011;6813;60.352;15.746;2023-02-24T09:06:48;6.93;;;3.67;;
13481;SDS011;6813;60.352;15.746;2023-02-24T09:09:22;5.47;;;3.27;;
13481;SDS011;6813;60.352;15.746;2023-02-24T09:11:50;4.40;;;3.00;;
13481;SDS011;6813;60.352;15.746;2023-02-24T09:14:20;4.23;;;3.17;;
13481;SDS011;6813;60.352;15.746;2023-02-24T09:16:51;7.30;;;3.70;;
13481;SDS011;6813;60.352;15.746;2023-02-24T09:22:11;6.10;;;3.60;;
13481;SDS011;6813;60.352;15.746;2023-02-24T09:24:57;6.70;;;4.33;;
13481;SDS011;6813;60.352;15.746;2023-02-24T09:27:52;6.30;;;3.53;;
13481;SDS011;6813;60.352;15.746;2023-02-24T09:30:40;5.80;;;3.50;;
13481;SDS011;6813;60.352;15.746;2023-02-24T09:33:34;6.60;;;3.80;;
13481;SDS011;6813;60.352;15.746;2023-02-24T09:36:09;4.23;;;2.73;;
13481;SDS011;6813;60.352;15.746;2023-02-24T09:41:37;3.10;;;2.33;;
13481;SDS011;6813;60.352;15.746;2023-02-24T09:52:47;6.43;;;2.90;;
13481;SDS011;6813;60.352;15.746;2023-02-24T09:55:37;3.87;;;2.87;;
13481;SDS011;6813;60.352;15.746;2023-02-24T10:01:21;3.20;;;2.30;;
13481;SDS011;6813;60.352;15.746;2023-02-24T10:04:22;4.03;;;2.60;;
13481;SDS011;6813;60.352;15.746;2023-02-24T10:09:54;3.20;;;2.40;;
13481;SDS011;6813;60.352;15.746;2023-02-24T10:12:43;2.83;;;2.30;;
13481;SDS011;6813;60.352;15.746;2023-02-24T10:15:26;2.60;;;2.20;;
13481;SDS011;6813;60.352;15.746;2023-02-24T10:20:56;2.47;;;2.20;;
13481;SDS011;6813;60.352;15.746;2023-02-24T10:26:22;4.60;;;2.40;;
13481;SDS011;6813;60.352;15.746;2023-02-24T10:29:07;1.90;;;1.70;;
13481;SDS011;6813;60.352;15.746;2023-02-24T10:34:15;2.80;;;2.00;;
13481;SDS011;6813;60.352;15.746;2023-02-24T10:36:50;2.77;;;2.20;;
13481;SDS011;6813;60.352;15.746;2023-02-24T10:39:17;3.53;;;1.90;;
13481;SDS011;6813;60.352;15.746;2023-02-24T10:41:50;2.87;;;2.20;;
13481;SDS011;6813;60.352;15.746;2023-02-24T10:44:39;4.10;;;2.17;;
13481;SDS011;6813;60.352;15.746;2023-02-24T10:49:55;2.23;;;1.80;;
13481;SDS011;6813;60.352;15.746;2023-02-24T10:55:18;2.20;;;2.00;;
13481;SDS011;6813;60.352;15.746;2023-02-24T10:57:53;2.73;;;2.10;;
13481;SDS011;6813;60.352;15.746;2023-02-24T11:00:42;3.63;;;1.83;;
13481;SDS011;6813;60.352;15.746;2023-02-24T11:03:27;3.87;;;2.20;;
13481;SDS011;6813;60.352;15.746;2023-02-24T11:06:03;2.93;;;2.17;;
13481;SDS011;6813;60.352;15.746;2023-02-24T11:08:29;2.70;;;1.80;;
13481;SDS011;6813;60.352;15.746;2023-02-24T11:11:12;4.47;;;2.67;;
13481;SDS011;6813;60.352;15.746;2023-02-24T11:13:50;3.13;;;2.03;;
13481;SDS011;6813;60.352;15.746;2023-02-24T11:16:51;3.13;;;2.00;;
13481;SDS011;6813;60.352;15.746;2023-02-24T11:19:42;2.87;;;1.87;;
13481;SDS011;6813;60.352;15.746;2023-02-24T11:22:18;1.77;;;1.50;;
13481;SDS011;6813;60.352;15.746;2023-02-24T11:24:48;2.40;;;1.73;;
13481;SDS011;6813;60.352;15.746;2023-02-24T11:27:16;2.37;;;1.53;;
13481;SDS011;6813;60.352;15.746;2023-02-24T11:30:30;1.87;;;1.50;;
13481;SDS011;6813;60.352;15.746;2023-02-24T11:35:42;2.50;;;2.00;;
13481;SDS011;6813;60.352;15.746;2023-02-24T11:38:25;2.10;;;1.90;;
13481;SDS011;6813;60.352;15.746;2023-02-24T11:41:20;3.20;;;2.13;;
13481;SDS011;6813;60.352;15.746;2023-02-24T11:44:08;3.57;;;2.70;;
13481;SDS011;6813;60.352;15.746;2023-02-24T11:46:47;3.77;;;2.80;;
13481;SDS011;6813;60.352;15.746;2023-02-24T11:49:23;2.70;;;2.20;;
13481;SDS011;6813;60.352;15.746;2023-02-24T11:51:50;3.40;;;2.63;;
13481;SDS011;6813;60.352;15.746;2023-02-24T11:54:18;4.90;;;2.87;;
13481;SDS011;6813;60.352;15.746;2023-02-24T11:56:55;4.03;;;2.47;;
13481;SDS011;6813;60.352;15.746;2023-02-24T12:04:57;2.60;;;2.30;;
13481;SDS011;6813;60.352;15.746;2023-02-24T12:07:35;3.60;;;2.70;;
13481;SDS011;6813;60.352;15.746;2023-02-24T12:12:38;2.83;;;2.43;;
13481;SDS011;6813;60.352;15.746;2023-02-24T12:15:49;3.70;;;2.40;;
13481;SDS011;6813;60.352;15.746;2023-02-24T12:20:59;2.70;;;2.37;;
13481;SDS011;6813;60.352;15.746;2023-02-24T12:23:32;3.93;;;2.70;;
13481;SDS011;6813;60.352;15.746;2023-02-24T12:31:55;3.13;;;2.07;;
13481;SDS011;6813;60.352;15.746;2023-02-24T12:40:43;3.90;;;2.20;;
13481;SDS011;6813;60.352;15.746;2023-02-24T12:42:56;3.53;;;2.20;;
13481;SDS011;6813;60.352;15.746;2023-02-24T12:48:28;2.37;;;2.13;;
13481;SDS011;6813;60.352;15.746;2023-02-24T12:59:26;2.00;;;1.77;;
13481;SDS011;6813;60.352;15.746;2023-02-24T13:02:00;2.47;;;2.00;;
13481;SDS011;6813;60.352;15.746;2023-02-24T13:13:54;2.77;;;1.90;;
13481;SDS011;6813;60.352;15.746;2023-02-24T13:16:08;1.83;;;1.67;;
13481;SDS011;6813;60.352;15.746;2023-02-24T13:18:36;3.73;;;2.20;;
13481;SDS011;6813;60.352;15.746;2023-02-24T13:21:06;2.90;;;1.90;;
13481;SDS011;6813;60.352;15.746;2023-02-24T13:23:52;1.63;;;1.50;;
13481;SDS011;6813;60.352;15.746;2023-02-24T13:26:26;2.23;;;1.63;;
13481;SDS011;6813;60.352;15.746;2023-02-24T13:29:03;1.83;;;1.50;;
13481;SDS011;6813;60.352;15.746;2023-02-24T13:31:47;2.67;;;1.63;;
13481;SDS011;6813;60.352;15.746;2023-02-24T13:36:49;2.10;;;1.77;;
13481;SDS011;6813;60.352;15.746;2023-02-24T13:39:34;2.30;;;1.70;;
13481;SDS011;6813;60.352;15.746;2023-02-24T13:42:54;2.30;;;1.60;;
13481;SDS011;6813;60.352;15.746;2023-02-24T14:01:55;1.90;;;1.60;;
13481;SDS011;6813;60.352;15.746;2023-02-24T14:04:37;2.73;;;1.80;;
13481;SDS011;6813;60.352;15.746;2023-02-24T14:07:20;2.77;;;1.60;;
13481;SDS011;6813;60.352;15.746;2023-02-24T14:09:56;2.63;;;1.77;;
13481;SDS011;6813;60.352;15.746;2023-02-24T14:12:25;3.50;;;1.97;;
13481;SDS011;6813;60.352;15.746;2023-02-24T14:14:53;2.87;;;1.90;;
13481;SDS011;6813;60.352;15.746;2023-02-24T14:17:30;2.60;;;1.70;;
13481;SDS011;6813;60.352;15.746;2023-02-24T14:22:49;2.43;;;2.00;;
13481;SDS011;6813;60.352;15.746;2023-02-24T14:25:32;3.73;;;1.67;;
13481;SDS011;6813;60.352;15.746;2023-02-24T14:28:01;3.30;;;2.27;;
13481;SDS011;6813;60.352;15.746;2023-02-24T14:32:57;2.63;;;2.00;;
13481;SDS011;6813;60.352;15.746;2023-02-24T14:35:26;2.57;;;2.07;;
13481;SDS011;6813;60.352;15.746;2023-02-24T14:37:59;3.83;;;2.67;;
13481;SDS011;6813;60.352;15.746;2023-02-24T14:40:25;3.20;;;2.53;;
13481;SDS011;6813;60.352;15.746;2023-02-24T14:42:51;4.27;;;2.83;;
13481;SDS011;6813;60.352;15.746;2023-02-24T14:45:20;4.43;;;2.30;;
13481;SDS011;6813;60.352;15.746;2023-02-24T14:47:51;3.50;;;2.40;;
13481;SDS011;6813;60.352;15.746;2023-02-24T14:50:21;2.30;;;2.07;;
13481;SDS011;6813;60.352;15.746;2023-02-24T14:52:57;2.67;;;2.20;;
13481;SDS011;6813;60.352;15.746;2023-02-24T14:55:30;4.33;;;2.30;;
13481;SDS011;6813;60.352;15.746;2023-02-24T14:58:03;3.30;;;2.50;;
13481;SDS011;6813;60.352;15.746;2023-02-24T15:00:40;5.33;;;2.67;;
13481;SDS011;6813;60.352;15.746;2023-02-24T15:03:23;3.87;;;2.37;;
13481;SDS011;6813;60.352;15.746;2023-02-24T15:05:56;3.90;;;2.47;;
13481;SDS011;6813;60.352;15.746;2023-02-24T15:10:59;4.57;;;2.10;;
13481;SDS011;6813;60.352;15.746;2023-02-24T15:13:34;2.80;;;2.07;;
13481;SDS011;6813;60.352;15.746;2023-02-24T15:16:07;3.00;;;2.03;;
13481;SDS011;6813;60.352;15.746;2023-02-24T15:18:41;3.60;;;2.37;;
13481;SDS011;6813;60.352;15.746;2023-02-24T15:21:14;2.80;;;2.20;;
13481;SDS011;6813;60.352;15.746;2023-02-24T15:23:45;3.60;;;2.67;;
13481;SDS011;6813;60.352;15.746;2023-02-24T15:26:27;3.20;;;2.27;;
13481;SDS011;6813;60.352;15.746;2023-02-24T15:28:58;3.07;;;2.43;;
13481;SDS011;6813;60.352;15.746;2023-02-24T15:31:26;2.37;;;2.03;;
13481;SDS011;6813;60.352;15.746;2023-02-24T15:33:57;3.47;;;2.60;;
13481;SDS011;6813;60.352;15.746;2023-02-24T15:36:30;7.40;;;4.93;;
13481;SDS011;6813;60.352;15.746;2023-02-24T15:39:04;5.63;;;4.07;;
13481;SDS011;6813;60.352;15.746;2023-02-24T15:41:38;9.53;;;6.87;;
13481;SDS011;6813;60.352;15.746;2023-02-24T15:44:05;6.03;;;4.57;;
13481;SDS011;6813;60.352;15.746;2023-02-24T15:46:51;5.20;;;3.77;;
13481;SDS011;6813;60.352;15.746;2023-02-24T15:49:18;3.63;;;2.40;;
13481;SDS011;6813;60.352;15.746;2023-02-24T15:51:44;5.33;;;2.93;;
13481;SDS011;6813;60.352;15.746;2023-02-24T15:54:31;4.30;;;3.70;;
13481;SDS011;6813;60.352;15.746;2023-02-24T15:57:00;4.17;;;3.43;;
13481;SDS011;6813;60.352;15.746;2023-02-24T15:59:27;3.60;;;2.57;;
13481;SDS011;6813;60.352;15.746;2023-02-24T16:01:53;3.07;;;2.17;;
13481;SDS011;6813;60.352;15.746;2023-02-24T16:04:20;2.93;;;2.10;;
13481;SDS011;6813;60.352;15.746;2023-02-24T16:06:47;4.27;;;2.20;;
13481;SDS011;6813;60.352;15.746;2023-02-24T16:09:24;3.47;;;1.77;;
13481;SDS011;6813;60.352;15.746;2023-02-24T16:15:11;1.93;;;1.30;;
13481;SDS011;6813;60.352;15.746;2023-02-24T16:17:42;4.27;;;1.07;;
13481;SDS011;6813;60.352;15.746;2023-02-24T16:20:14;4.07;;;1.17;;
13481;SDS011;6813;60.352;15.746;2023-02-24T16:22:41;1.73;;;1.03;;
13481;SDS011;6813;60.352;15.746;2023-02-24T16:25:07;1.13;;;0.83;;
13481;SDS011;6813;60.352;15.746;2023-02-24T16:27:34;1.83;;;0.90;;
13481;SDS011;6813;60.352;15.746;2023-02-24T16:30:00;1.03;;;0.70;;
13481;SDS011;6813;60.352;15.746;2023-02-24T16:32:26;1.23;;;0.80;;
13481;SDS011;6813;60.352;15.746;2023-02-24T16:34:52;2.67;;;1.00;;
13481;SDS011;6813;60.352;15.746;2023-02-24T16:37:19;0.80;;;0.70;;
13481;SDS011;6813;60.352;15.746;2023-02-24T16:39:54;2.40;;;0.97;;
13481;SDS011;6813;60.352;15.746;2023-02-24T16:42:20;1.40;;;0.60;;
13481;SDS011;6813;60.352;15.746;2023-02-24T16:44:49;1.17;;;0.90;;
13481;SDS011;6813;60.352;15.746;2023-02-24T16:47:16;2.37;;;0.90;;
13481;SDS011;6813;60.352;15.746;2023-02-24T16:49:46;1.33;;;0.80;;
13481;SDS011;6813;60.352;15.746;2023-02-24T16:52:12;4.83;;;1.27;;
13481;SDS011;6813;60.352;15.746;2023-02-24T16:54:43;1.87;;;0.70;;
13481;SDS011;6813;60.352;15.746;2023-02-24T16:57:09;1.00;;;0.90;;
13481;SDS011;6813;60.352;15.746;2023-02-24T16:59:35;1.40;;;0.90;;
13481;SDS011;6813;60.352;15.746;2023-02-24T17:02:02;2.70;;;1.00;;
13481;SDS011;6813;60.352;15.746;2023-02-24T17:04:28;1.23;;;0.90;;
13481;SDS011;6813;60.352;15.746;2023-02-24T17:06:55;1.73;;;0.97;;
13481;SDS011;6813;60.352;15.746;2023-02-24T17:09:21;1.03;;;0.73;;
13481;SDS011;6813;60.352;15.746;2023-02-24T17:11:47;1.57;;;0.60;;
13481;SDS011;6813;60.352;15.746;2023-02-24T17:14:14;1.20;;;0.80;;
13481;SDS011;6813;60.352;15.746;2023-02-24T17:16:42;0.73;;;0.40;;
13481;SDS011;6813;60.352;15.746;2023-02-24T17:19:08;0.97;;;0.40;;
13481;SDS011;6813;60.352;15.746;2023-02-24T17:21:34;1.20;;;0.60;;
13481;SDS011;6813;60.352;15.746;2023-02-24T17:24:00;1.67;;;0.60;;
13481;SDS011;6813;60.352;15.746;2023-02-24T17:26:25;1.20;;;0.50;;
13481;SDS011;6813;60.352;15.746;2023-02-24T17:28:51;1.43;;;0.60;;
13481;SDS011;6813;60.352;15.746;2023-02-24T17:31:17;1.73;;;0.80;;
13481;SDS011;6813;60.352;15.746;2023-02-24T17:33:43;2.20;;;0.60;;
13481;SDS011;6813;60.352;15.746;2023-02-24T17:36:08;1.63;;;0.80;;
13481;SDS011;6813;60.352;15.746;2023-02-24T17:38:34;1.53;;;0.60;;
13481;SDS011;6813;60.352;15.746;2023-02-24T17:41:00;1.23;;;0.40;;
13481;SDS011;6813;60.352;15.746;2023-02-24T17:43:26;1.17;;;0.60;;
13481;SDS011;6813;60.352;15.746;2023-02-24T17:45:53;0.43;;;0.40;;
13481;SDS011;6813;60.352;15.746;2023-02-24T17:48:19;0.70;;;0.50;;
13481;SDS011;6813;60.352;15.746;2023-02-24T17:50:45;3.73;;;0.50;;
13481;SDS011;6813;60.352;15.746;2023-02-24T17:53:12;1.13;;;0.50;;
13481;SDS011;6813;60.352;15.746;2023-02-24T17:55:38;0.80;;;0.50;;
13481;SDS011;6813;60.352;15.746;2023-02-24T17:58:05;1.50;;;0.63;;
13481;SDS011;6813;60.352;15.746;2023-02-24T18:00:31;0.87;;;0.67;;
13481;SDS011;6813;60.352;15.746;2023-02-24T18:02:57;0.43;;;0.43;;